Time;durP1;ratioP1;P1;durP2;ratioP2;P2;SDS_P1;SDS_P2;PMS_P1;PMS_P2;Temp;Humidity;BMP_temperature;BMP_pressure;BME280_temperature;BME280_humidity;BME280_pressure;Samples;Min_cycle;Max_cycle;Signal;HPM_P1;HPM_P2
2022/03/29 00:00:18;;;;;;;9.23;8.33;;;8.00;98.40;;;;;;5002895;28;20210;-77
2022/03/29 00:02:45;;;;;;;12.37;7.67;;;8.00;98.40;;;;;;5002620;28;20203;-78
2022/03/29 00:05:12;;;;;;;13.77;7.97;;;8.00;98.70;;;;;;5000553;28;20200;-77
2022/03/29 00:07:40;;;;;;;11.80;9.80;;;8.00;98.80;;;;;;5006460;28;20232;-78
2022/03/29 00:10:08;;;;;;;9.70;8.50;;;8.00;98.70;;;;;;5006844;28;20232;-78
2022/03/29 00:12:36;;;;;;;11.73;9.73;;;7.90;98.70;;;;;;5006310;28;20281;-77
2022/03/29 00:15:03;;;;;;;11.20;10.10;;;7.90;98.80;;;;;;5006643;28;20296;-76
2022/03/29 00:17:30;;;;;;;13.60;9.93;;;7.90;99.00;;;;;;5006731;28;20228;-78
2022/03/29 00:19:57;;;;;;;11.37;9.87;;;7.90;99.40;;;;;;4999811;28;20344;-78
2022/03/29 00:22:24;;;;;;;13.97;10.67;;;7.90;99.30;;;;;;5006465;28;20205;-77
2022/03/29 00:24:52;;;;;;;11.47;10.27;;;7.90;99.20;;;;;;5007554;28;20728;-77
2022/03/29 00:27:19;;;;;;;13.93;11.10;;;7.90;99.10;;;;;;5007388;28;20275;-77
2022/03/29 00:29:46;;;;;;;13.03;10.20;;;7.90;99.30;;;;;;5007873;28;20581;-77
2022/03/29 00:32:13;;;;;;;12.33;9.73;;;7.90;99.10;;;;;;5004634;28;20251;-77
2022/03/29 00:34:41;;;;;;;11.00;9.63;;;7.90;99.10;;;;;;5001572;28;20200;-77
2022/03/29 00:37:08;;;;;;;10.57;9.40;;;7.90;99.00;;;;;;4999326;28;20463;-78
2022/03/29 00:39:35;;;;;;;12.53;10.70;;;7.90;99.10;;;;;;5007383;28;20264;-77
2022/03/29 00:42:05;;;;;;;14.03;11.00;;;7.90;99.70;;;;;;5007363;28;20275;-78
2022/03/29 00:44:34;;;;;;;16.77;11.10;;;7.90;99.60;;;;;;5005915;28;20192;-78
2022/03/29 00:47:02;;;;;;;13.03;10.37;;;7.90;99.70;;;;;;5010116;28;20216;-78
2022/03/29 00:49:29;;;;;;;10.87;9.63;;;7.90;99.70;;;;;;5003691;28;20208;-78
2022/03/29 00:51:58;;;;;;;16.70;10.33;;;7.90;99.70;;;;;;5000436;28;20201;-78
2022/03/29 00:54:25;;;;;;;12.43;10.47;;;7.90;99.60;;;;;;5003098;28;20728;-77
2022/03/29 00:56:52;;;;;;;13.67;9.77;;;7.90;99.60;;;;;;5007225;28;20277;-77
2022/03/29 00:59:21;;;;;;;13.10;10.10;;;7.80;99.60;;;;;;5004601;28;20270;-78
2022/03/29 01:01:48;;;;;;;12.17;9.07;;;7.80;99.80;;;;;;5005533;28;20215;-78
2022/03/29 01:04:15;;;;;;;11.77;9.17;;;7.70;99.90;;;;;;5005498;28;20193;-77
2022/03/29 01:06:43;;;;;;;11.90;10.23;;;7.70;99.90;;;;;;5006998;28;20195;-78
2022/03/29 01:09:10;;;;;;;14.40;9.53;;;7.60;99.90;;;;;;5005241;28;20215;-78
2022/03/29 01:11:38;;;;;;;14.60;10.13;;;7.50;99.90;;;;;;4993436;28;20226;-77
2022/03/29 01:14:05;;;;;;;15.03;10.13;;;7.60;99.90;;;;;;5007825;28;20229;-78
2022/03/29 01:19:21;;;;;;;14.13;10.93;;;7.50;99.90;;;;;;5006057;28;20672;-78
2022/03/29 01:21:55;;;;;;;13.00;10.60;;;7.50;99.90;;;;;;5001195;28;20203;-78
2022/03/29 01:24:23;;;;;;;12.27;10.50;;;7.50;99.90;;;;;;5005405;28;20237;-78
2022/03/29 01:26:50;;;;;;;13.43;9.80;;;7.50;99.90;;;;;;5003920;28;20248;-78
2022/03/29 01:29:17;;;;;;;11.10;9.60;;;7.50;99.90;;;;;;4996240;28;20313;-78
2022/03/29 01:31:44;;;;;;;11.47;9.53;;;7.60;99.90;;;;;;5004175;28;20198;-78
2022/03/29 01:34:12;;;;;;;12.43;9.77;;;7.60;99.90;;;;;;5004643;28;20204;-78
2022/03/29 01:36:39;;;;;;;13.63;10.50;;;7.70;99.90;;;;;;5005864;28;20619;-78
2022/03/29 01:39:07;;;;;;;13.73;9.70;;;7.60;99.90;;;;;;5004338;28;20208;-77
2022/03/29 01:41:34;;;;;;;12.70;9.27;;;7.60;99.90;;;;;;4999011;28;20195;-78
2022/03/29 01:44:00;;;;;;;12.80;9.47;;;7.70;99.90;;;;;;5000352;28;20217;-78
2022/03/29 01:46:27;;;;;;;11.53;8.73;;;7.70;99.90;;;;;;5002902;28;20204;-77
2022/03/29 01:48:54;;;;;;;11.83;8.90;;;7.70;99.90;;;;;;5003772;28;20677;-77
2022/03/29 01:51:21;;;;;;;11.93;8.80;;;7.70;99.90;;;;;;5003824;28;20298;-78
2022/03/29 01:53:54;;;;;;;11.13;9.47;;;7.60;99.90;;;;;;5005862;28;20609;-78
2022/03/29 01:56:23;;;;;;;10.67;9.00;;;7.50;99.90;;;;;;5004296;28;20294;-78
2022/03/29 01:58:49;;;;;;;11.47;8.67;;;7.50;99.90;;;;;;5002476;28;20223;-77
2022/03/29 02:01:16;;;;;;;13.40;9.67;;;7.50;99.90;;;;;;4990078;28;20215;-78
2022/03/29 02:03:43;;;;;;;10.83;8.70;;;7.40;99.90;;;;;;5007259;28;20309;-76
2022/03/29 02:06:10;;;;;;;12.47;9.60;;;7.40;99.90;;;;;;4995838;28;20263;-78
2022/03/29 02:08:37;;;;;;;15.00;10.80;;;7.40;99.90;;;;;;5029442;23;20235;-78
2022/03/29 02:11:04;;;;;;;14.90;11.33;;;7.30;99.90;;;;;;4998488;28;20258;-75
2022/03/29 02:13:32;;;;;;;13.93;10.67;;;7.30;99.90;;;;;;5002616;28;20656;-76
2022/03/29 02:15:59;;;;;;;14.03;11.00;;;7.30;99.90;;;;;;5000850;28;20202;-76
2022/03/29 02:18:26;;;;;;;15.90;11.73;;;7.30;99.90;;;;;;4981849;28;20277;-75
2022/03/29 02:20:54;;;;;;;13.93;11.53;;;7.30;99.90;;;;;;4994088;28;20684;-76
2022/03/29 02:23:20;;;;;;;12.87;10.67;;;7.20;99.90;;;;;;4981915;28;20246;-76
2022/03/29 02:25:47;;;;;;;12.00;9.77;;;7.20;99.90;;;;;;4983408;28;20208;-76
2022/03/29 02:28:14;;;;;;;12.90;9.87;;;7.20;99.90;;;;;;4981163;28;20265;-76
2022/03/29 02:30:42;;;;;;;11.43;8.57;;;7.20;99.90;;;;;;4983227;28;20230;-75
2022/03/29 02:33:09;;;;;;;12.40;8.77;;;7.20;99.90;;;;;;4982328;28;20258;-77
2022/03/29 02:35:36;;;;;;;12.43;8.97;;;7.20;99.90;;;;;;4966822;28;20549;-76
2022/03/29 02:38:03;;;;;;;13.13;9.17;;;7.20;99.90;;;;;;4972416;28;20228;-75
2022/03/29 02:40:30;;;;;;;15.00;9.63;;;7.20;99.90;;;;;;4971105;28;20726;-75
2022/03/29 02:42:56;;;;;;;13.60;8.60;;;7.20;99.90;;;;;;4977403;28;20200;-75
2022/03/29 02:45:25;;;;;;;11.03;8.83;;;7.20;99.90;;;;;;4976909;28;20209;-77
2022/03/29 02:47:57;;;;;;;11.60;8.23;;;7.20;99.90;;;;;;4974640;28;20216;-77
2022/03/29 02:50:25;;;;;;;12.83;8.97;;;7.20;99.90;;;;;;4972335;28;20202;-77
2022/03/29 02:52:54;;;;;;;11.00;8.97;;;7.20;99.90;;;;;;4970088;28;20211;-77
2022/03/29 02:55:22;;;;;;;11.13;8.43;;;7.30;99.90;;;;;;4973757;28;20256;-78
2022/03/29 02:57:50;;;;;;;11.93;8.53;;;7.30;99.90;;;;;;4984217;28;20588;-77
2022/03/29 03:00:18;;;;;;;11.40;7.23;;;7.40;99.90;;;;;;4981778;28;20283;-77
2022/03/29 03:02:46;;;;;;;11.03;7.23;;;7.40;99.90;;;;;;4984687;28;20262;-78
2022/03/29 03:05:15;;;;;;;12.23;8.30;;;7.40;99.90;;;;;;4983251;28;20220;-77
2022/03/29 03:07:43;;;;;;;12.00;8.37;;;7.40;99.90;;;;;;4982357;28;20276;-78
2022/03/29 03:10:11;;;;;;;11.90;7.00;;;7.40;99.90;;;;;;4983213;28;20630;-78
2022/03/29 03:12:39;;;;;;;11.27;7.40;;;7.40;99.90;;;;;;4989119;28;20204;-77
2022/03/29 03:15:08;;;;;;;11.10;7.63;;;7.40;99.90;;;;;;4987877;28;20196;-78
2022/03/29 03:17:35;;;;;;;10.20;7.70;;;7.30;99.90;;;;;;4979025;28;20216;-78
2022/03/29 03:20:03;;;;;;;11.53;7.50;;;7.30;99.90;;;;;;4974786;28;20289;-77
2022/03/29 03:22:32;;;;;;;13.03;7.50;;;7.20;99.90;;;;;;4986354;28;20200;-78
2022/03/29 03:24:58;;;;;;;11.00;8.13;;;7.20;99.90;;;;;;4982764;28;20219;-78
2022/03/29 03:27:25;;;;;;;11.77;7.70;;;7.20;99.90;;;;;;4984462;28;20278;-80
2022/03/29 03:29:52;;;;;;;13.30;8.13;;;7.20;99.90;;;;;;4969975;28;20240;-78
2022/03/29 03:32:19;;;;;;;11.47;7.60;;;7.20;99.90;;;;;;4961472;28;20265;-80
2022/03/29 03:34:45;;;;;;;11.60;8.70;;;7.20;99.90;;;;;;4965736;28;20200;-78
2022/03/29 03:37:12;;;;;;;11.97;8.07;;;7.30;99.90;;;;;;4975325;28;20271;-78
2022/03/29 03:39:41;;;;;;;13.20;8.67;;;7.30;99.90;;;;;;4963605;28;20208;-79
2022/03/29 03:42:09;;;;;;;12.80;8.50;;;7.20;99.90;;;;;;4976910;28;20299;-79
2022/03/29 03:44:37;;;;;;;11.23;7.77;;;7.20;99.90;;;;;;4964702;28;20258;-79
2022/03/29 03:47:05;;;;;;;11.20;7.93;;;7.20;99.90;;;;;;4961967;28;20204;-79
2022/03/29 03:49:32;;;;;;;10.60;7.50;;;7.20;99.90;;;;;;4964246;28;20234;-77
2022/03/29 03:51:59;;;;;;;11.60;7.30;;;7.20;99.90;;;;;;4979092;28;20203;-79
2022/03/29 03:54:26;;;;;;;12.43;8.53;;;7.20;99.90;;;;;;4986406;28;20204;-79
2022/03/29 03:56:54;;;;;;;11.57;8.00;;;7.20;99.90;;;;;;4981761;28;20197;-79
2022/03/29 03:59:22;;;;;;;10.50;7.60;;;7.10;99.90;;;;;;4997055;28;20207;-79
2022/03/29 04:01:48;;;;;;;12.70;7.77;;;7.10;99.90;;;;;;4983462;28;20203;-79
2022/03/29 04:04:15;;;;;;;10.60;8.53;;;7.10;99.90;;;;;;4974806;28;20784;-78
2022/03/29 04:06:42;;;;;;;12.67;8.53;;;7.10;99.90;;;;;;4959770;28;20223;-77
2022/03/29 04:09:09;;;;;;;11.57;7.87;;;7.00;99.90;;;;;;4973504;28;20287;-78
2022/03/29 04:11:36;;;;;;;10.87;6.93;;;7.00;99.90;;;;;;4975730;28;20218;-78
2022/03/29 04:14:04;;;;;;;10.63;7.20;;;7.00;99.90;;;;;;4974531;28;20582;-80
2022/03/29 04:16:31;;;;;;;12.47;8.17;;;7.00;99.90;;;;;;4962151;28;20251;-79
2022/03/29 04:18:58;;;;;;;11.47;8.13;;;7.00;99.90;;;;;;4959158;28;20227;-78
2022/03/29 04:21:24;;;;;;;13.00;8.03;;;7.00;99.90;;;;;;4959330;28;20205;-78
2022/03/29 04:23:52;;;;;;;11.30;7.80;;;6.90;99.90;;;;;;4963166;28;20216;-77
2022/03/29 04:26:18;;;;;;;13.77;8.53;;;6.90;99.90;;;;;;4978066;28;20236;-79
2022/03/29 04:28:45;;;;;;;11.27;7.90;;;6.90;99.90;;;;;;4974425;28;20229;-79
2022/03/29 04:31:13;;;;;;;12.80;9.00;;;6.80;99.90;;;;;;4963235;28;20197;-78
2022/03/29 04:33:41;;;;;;;11.83;7.67;;;6.80;99.90;;;;;;4976673;28;20200;-80
2022/03/29 04:36:08;;;;;;;10.53;7.97;;;6.80;99.90;;;;;;4982298;28;20199;-78
2022/03/29 04:38:35;;;;;;;12.47;7.70;;;6.80;99.90;;;;;;4986821;28;20220;-82
2022/03/29 04:41:01;;;;;;;14.00;8.47;;;6.80;99.90;;;;;;4971972;28;20211;-76
2022/03/29 04:43:28;;;;;;;11.17;7.93;;;6.80;99.90;;;;;;4996931;28;20739;-78
2022/03/29 04:45:55;;;;;;;11.53;7.63;;;6.80;99.90;;;;;;4982762;28;20242;-76
2022/03/29 04:48:23;;;;;;;12.97;8.63;;;6.80;99.90;;;;;;4980216;28;20734;-77
2022/03/29 04:50:50;;;;;;;12.77;8.30;;;6.70;99.90;;;;;;4987330;28;20187;-77
2022/03/29 04:53:17;;;;;;;10.57;7.50;;;6.70;99.90;;;;;;4990044;28;20211;-77
2022/03/29 04:55:44;;;;;;;9.43;6.83;;;6.70;99.90;;;;;;4982352;28;20203;-77
2022/03/29 04:58:11;;;;;;;11.70;7.67;;;6.70;99.90;;;;;;4988150;28;20277;-77
2022/03/29 05:00:38;;;;;;;12.17;8.17;;;6.70;99.90;;;;;;4982101;28;20251;-76
2022/03/29 05:03:05;;;;;;;11.70;7.80;;;6.80;99.90;;;;;;4981199;28;20667;-77
2022/03/29 05:05:33;;;;;;;11.47;8.47;;;6.70;99.90;;;;;;4983270;28;20226;-77
2022/03/29 05:08:00;;;;;;;10.77;7.93;;;6.70;99.90;;;;;;4981974;28;20231;-77
2022/03/29 05:10:27;;;;;;;10.83;7.30;;;6.70;99.90;;;;;;4979022;28;20701;-77
2022/03/29 05:12:55;;;;;;;12.40;8.27;;;6.80;99.90;;;;;;4981295;28;20205;-77
2022/03/29 05:15:22;;;;;;;14.10;8.20;;;6.80;99.90;;;;;;4982316;28;20202;-77
2022/03/29 05:17:49;;;;;;;12.57;8.57;;;6.80;99.90;;;;;;4981958;28;20212;-77
2022/03/29 05:20:17;;;;;;;13.03;8.37;;;6.90;99.90;;;;;;4982377;28;20203;-77
2022/03/29 05:22:48;;;;;;;14.17;8.60;;;6.90;99.90;;;;;;4984793;28;20196;-77
2022/03/29 05:25:16;;;;;;;11.67;8.10;;;6.90;99.90;;;;;;4985692;28;20273;-77
2022/03/29 05:27:43;;;;;;;15.03;9.47;;;6.90;99.90;;;;;;4979980;28;20222;-77
2022/03/29 05:30:11;;;;;;;12.93;8.07;;;7.00;99.90;;;;;;4978696;28;20246;-77
2022/03/29 05:32:39;;;;;;;11.53;8.27;;;7.10;99.90;;;;;;4974135;28;20536;-77
2022/03/29 05:35:07;;;;;;;10.70;8.23;;;7.10;99.90;;;;;;4982052;28;20196;-77
2022/03/29 05:37:34;;;;;;;11.87;8.23;;;7.20;99.90;;;;;;4983065;28;20228;-77
2022/03/29 05:40:03;;;;;;;14.47;8.83;;;7.30;99.90;;;;;;4981466;28;20383;-77
2022/03/29 05:42:30;;;;;;;15.87;9.30;;;7.30;99.90;;;;;;4975993;28;20211;-77
2022/03/29 05:44:57;;;;;;;11.97;9.17;;;7.40;99.90;;;;;;4984865;28;20210;-77
2022/03/29 05:50:09;;;;;;;13.33;9.20;;;7.50;99.90;;;;;;4980722;28;20192;-77
2022/03/29 05:52:37;;;;;;;13.87;9.00;;;7.50;99.90;;;;;;4984296;28;20544;-77
2022/03/29 05:55:06;;;;;;;13.37;9.50;;;7.60;99.90;;;;;;4980410;28;20577;-77
2022/03/29 05:57:33;;;;;;;11.53;8.23;;;7.70;99.90;;;;;;4983608;28;20243;-77
2022/03/29 06:00:00;;;;;;;10.70;7.17;;;7.80;99.90;;;;;;4981371;28;20208;-77
2022/03/29 06:02:26;;;;;;;12.27;9.00;;;7.80;99.90;;;;;;4975339;28;20252;-77
2022/03/29 06:04:54;;;;;;;11.43;8.90;;;8.00;99.90;;;;;;4983236;28;20221;-77
2022/03/29 06:07:20;;;;;;;11.80;8.47;;;8.00;99.90;;;;;;4978463;28;20721;-77
2022/03/29 06:09:47;;;;;;;13.63;9.50;;;8.10;99.90;;;;;;4982220;28;20246;-78
2022/03/29 06:12:20;;;;;;;16.20;10.13;;;8.10;99.90;;;;;;4980271;28;20223;-78
2022/03/29 06:14:47;;;;;;;12.40;8.83;;;8.30;99.90;;;;;;4981913;28;20196;-78
2022/03/29 06:17:14;;;;;;;11.30;8.23;;;8.40;99.90;;;;;;4982464;28;20228;-78
2022/03/29 06:19:41;;;;;;;11.77;8.80;;;8.50;99.90;;;;;;4978615;28;20231;-78
2022/03/29 06:22:08;;;;;;;10.73;7.83;;;8.50;99.90;;;;;;4983171;28;20209;-78
2022/03/29 06:24:34;;;;;;;10.77;7.97;;;8.70;99.90;;;;;;4980940;28;20278;-77
2022/03/29 06:27:02;;;;;;;11.93;8.57;;;8.80;99.90;;;;;;4979605;28;20237;-78
2022/03/29 06:29:30;;;;;;;13.70;7.63;;;8.80;99.90;;;;;;4981884;28;20556;-78
2022/03/29 06:31:58;;;;;;;10.93;7.90;;;8.90;99.90;;;;;;4981196;28;20658;-78
2022/03/29 06:34:26;;;;;;;9.77;7.57;;;9.00;99.90;;;;;;4987713;28;20201;-78
2022/03/29 06:36:53;;;;;;;14.07;8.80;;;9.00;99.90;;;;;;4984865;28;20255;-78
2022/03/29 06:39:20;;;;;;;12.50;8.80;;;9.10;99.90;;;;;;4981912;28;20197;-77
2022/03/29 06:41:46;;;;;;;12.93;8.30;;;9.00;99.90;;;;;;4982739;28;20252;-78
2022/03/29 06:44:14;;;;;;;13.50;8.80;;;9.00;99.90;;;;;;4983833;28;20277;-77
2022/03/29 06:46:43;;;;;;;11.90;9.47;;;9.00;99.90;;;;;;4983982;28;20202;-77
2022/03/29 06:49:10;;;;;;;14.80;9.80;;;9.00;99.90;;;;;;4984710;28;20220;-78
2022/03/29 06:51:37;;;;;;;13.67;8.83;;;9.00;99.90;;;;;;4983471;28;20202;-78
2022/03/29 06:54:05;;;;;;;15.37;9.37;;;9.20;99.90;;;;;;4985746;28;20201;-77
2022/03/29 06:56:32;;;;;;;13.83;9.07;;;9.20;99.90;;;;;;4983502;28;20186;-77
2022/03/29 06:59:00;;;;;;;17.53;10.20;;;9.30;99.90;;;;;;4982709;28;20280;-77
2022/03/29 07:01:27;;;;;;;13.33;8.83;;;9.40;99.90;;;;;;4986621;28;20201;-77
2022/03/29 07:03:59;;;;;;;11.77;8.93;;;9.50;99.90;;;;;;4983649;28;20205;-77
2022/03/29 07:06:30;;;;;;;12.37;8.30;;;9.50;99.90;;;;;;4985632;28;20635;-77
2022/03/29 07:11:56;;;;;;;14.43;8.40;;;9.80;99.90;;;;;;4954906;29;20198;-78
2022/03/29 07:14:22;;;;;;;11.60;8.10;;;10.00;99.50;;;;;;4970198;28;20220;-77
2022/03/29 07:16:50;;;;;;;11.23;8.40;;;10.10;99.40;;;;;;4985487;28;20235;-77
2022/03/29 07:19:18;;;;;;;9.67;8.10;;;10.20;98.90;;;;;;4982665;28;20237;-77
2022/03/29 07:21:46;;;;;;;11.13;7.53;;;10.50;99.30;;;;;;4983405;28;20743;-78
2022/03/29 07:24:13;;;;;;;12.03;8.13;;;10.60;98.70;;;;;;4984973;28;20283;-78
2022/03/29 07:26:40;;;;;;;11.70;8.43;;;10.80;98.60;;;;;;4984325;28;20255;-77
2022/03/29 07:29:07;;;;;;;13.47;8.43;;;10.90;98.00;;;;;;4983762;28;20221;-77
2022/03/29 07:31:35;;;;;;;13.13;8.83;;;11.00;97.90;;;;;;4985198;28;20195;-78
2022/03/29 07:34:01;;;;;;;12.87;9.10;;;11.20;97.70;;;;;;4991924;28;20285;-77
2022/03/29 07:36:30;;;;;;;10.80;8.40;;;11.30;97.70;;;;;;4990454;28;20634;-78
2022/03/29 07:38:56;;;;;;;11.93;8.40;;;11.50;97.50;;;;;;4987229;28;20234;-77
2022/03/29 07:41:23;;;;;;;10.67;7.97;;;11.60;97.50;;;;;;4981822;28;20236;-78
2022/03/29 07:43:50;;;;;;;12.53;8.77;;;11.70;97.20;;;;;;4981488;28;20195;-77
2022/03/29 07:46:17;;;;;;;10.77;7.63;;;11.80;96.90;;;;;;4984062;28;20244;-78
2022/03/29 07:48:44;;;;;;;10.73;8.43;;;11.90;96.90;;;;;;4983205;28;20701;-78
2022/03/29 07:51:11;;;;;;;12.37;9.20;;;12.00;97.10;;;;;;4983200;28;20666;-78
2022/03/29 07:53:40;;;;;;;14.30;9.23;;;12.10;96.80;;;;;;4984565;28;20638;-78
2022/03/29 07:56:07;;;;;;;12.97;8.97;;;12.30;97.00;;;;;;4983826;28;20205;-77
2022/03/29 07:58:34;;;;;;;15.53;9.20;;;12.50;96.40;;;;;;4983713;28;20276;-78
2022/03/29 08:01:01;;;;;;;13.97;9.43;;;13.00;96.40;;;;;;4985592;28;20607;-78
2022/03/29 08:03:32;;;;;;;11.53;8.33;;;13.30;95.70;;;;;;4982848;28;20296;-78
2022/03/29 08:05:59;;;;;;;11.60;8.20;;;13.60;95.70;;;;;;4987480;28;20751;-78
2022/03/29 08:08:26;;;;;;;11.90;8.53;;;13.70;95.10;;;;;;5022264;23;20324;-79
2022/03/29 08:10:54;;;;;;;12.83;8.63;;;13.80;94.80;;;;;;5002237;28;20201;-79
2022/03/29 08:13:23;;;;;;;13.27;8.20;;;13.80;94.60;;;;;;5004867;28;20197;-80
2022/03/29 08:15:53;;;;;;;13.17;9.73;;;13.80;94.40;;;;;;5004777;28;20193;-79
2022/03/29 08:18:21;;;;;;;13.40;9.77;;;13.70;94.40;;;;;;5002914;28;20693;-78
2022/03/29 08:20:48;;;;;;;14.67;9.60;;;13.50;95.10;;;;;;4987294;28;20206;-78
2022/03/29 08:23:15;;;;;;;14.03;9.93;;;13.50;95.20;;;;;;4988595;28;20570;-77
2022/03/29 08:25:44;;;;;;;12.77;8.87;;;13.50;95.70;;;;;;4986713;28;20264;-78
2022/03/29 08:28:14;;;;;;;12.47;8.53;;;13.60;95.80;;;;;;4984623;28;20214;-78
2022/03/29 08:30:41;;;;;;;13.07;9.67;;;13.60;95.50;;;;;;4990470;28;20627;-78
2022/03/29 08:33:09;;;;;;;11.80;8.70;;;13.60;95.50;;;;;;4987635;28;20201;-78
2022/03/29 08:35:37;;;;;;;12.00;7.90;;;13.60;95.70;;;;;;4988417;28;20203;-78
2022/03/29 08:38:04;;;;;;;11.47;8.37;;;13.70;95.60;;;;;;4979707;28;20252;-78
2022/03/29 08:40:32;;;;;;;14.80;9.03;;;13.70;95.50;;;;;;4986509;28;20243;-76
2022/03/29 08:43:00;;;;;;;14.33;9.17;;;13.60;95.40;;;;;;4987218;28;20206;-79
2022/03/29 08:45:29;;;;;;;15.10;8.87;;;13.50;95.60;;;;;;4984641;28;20661;-78
2022/03/29 08:47:58;;;;;;;12.80;7.80;;;13.60;95.50;;;;;;4989015;28;20282;-78
2022/03/29 08:50:26;;;;;;;11.80;8.33;;;13.60;95.80;;;;;;4991285;28;20850;-80
2022/03/29 08:52:54;;;;;;;10.83;8.07;;;13.70;96.20;;;;;;4978258;28;20203;-78
2022/03/29 08:55:22;;;;;;;14.23;8.77;;;13.80;95.80;;;;;;4991024;28;20193;-79
2022/03/29 08:57:52;;;;;;;12.20;8.37;;;14.00;95.80;;;;;;4982949;28;20754;-80
2022/03/29 09:00:19;;;;;;;10.67;8.03;;;14.30;95.60;;;;;;4990998;28;20202;-80
2022/03/29 09:02:47;;;;;;;11.60;8.13;;;14.50;95.00;;;;;;4982838;28;20617;-80
2022/03/29 09:05:15;;;;;;;11.80;8.20;;;14.70;95.10;;;;;;4988801;28;20223;-79
2022/03/29 09:07:51;;;;;;;12.67;7.80;;;15.20;95.00;;;;;;4986662;28;21417;-80
2022/03/29 09:10:20;;;;;;;11.37;8.33;;;15.60;93.90;;;;;;4984705;28;20209;-79
2022/03/29 09:12:47;;;;;;;11.30;8.33;;;15.90;93.40;;;;;;4983857;28;20715;-80
2022/03/29 09:15:14;;;;;;;11.93;7.90;;;16.10;93.40;;;;;;4981219;28;20191;-80
2022/03/29 09:17:44;;;;;;;11.43;8.53;;;16.30;93.00;;;;;;4989035;28;20226;-80
2022/03/29 09:20:15;;;;;;;12.83;8.43;;;16.50;93.00;;;;;;4988906;28;20239;-78
2022/03/29 09:22:45;;;;;;;12.90;8.17;;;16.80;92.70;;;;;;4981307;28;20205;-79
2022/03/29 09:25:14;;;;;;;11.03;8.30;;;17.30;92.00;;;;;;4979721;28;20196;-78
2022/03/29 09:27:53;;;;;;;9.93;8.07;;;17.50;91.20;;;;;;4985731;28;20225;-79
2022/03/29 09:30:20;;;;;;;11.73;8.57;;;17.80;91.30;;;;;;4984389;28;20208;-78
2022/03/29 09:32:58;;;;;;;10.37;8.57;;;18.00;91.20;;;;;;4984006;28;20264;-79
2022/03/29 09:35:26;;;;;;;13.47;8.07;;;18.20;91.00;;;;;;4983333;28;20200;-79
2022/03/29 09:37:53;;;;;;;11.93;8.53;;;18.40;90.60;;;;;;4986647;28;20226;-78
2022/03/29 09:40:20;;;;;;;10.67;8.57;;;18.50;90.00;;;;;;4988392;28;20232;-79
2022/03/29 09:43:10;;;;;;;9.33;7.70;;;18.80;88.50;;;;;;4995386;28;20278;-78
2022/03/29 09:45:45;;;;;;;10.00;7.80;;;18.90;87.10;;;;;;4994845;28;20302;-78
2022/03/29 09:48:26;;;;;;;9.40;7.57;;;19.00;85.60;;;;;;4993073;28;20233;-80
2022/03/29 09:50:56;;;;;;;11.30;8.13;;;19.20;86.90;;;;;;4992837;28;20303;-78
2022/03/29 09:53:41;;;;;;;11.30;7.73;;;19.20;84.20;;;;;;4983714;28;20207;-79
2022/03/29 09:56:10;;;;;;;10.33;7.80;;;19.20;84.10;;;;;;4979238;28;20255;-79
2022/03/29 09:58:37;;;;;;;9.87;7.30;;;19.30;83.10;;;;;;4976945;28;20212;-77
2022/03/29 10:01:05;;;;;;;9.73;6.30;;;19.40;82.20;;;;;;4987481;28;20204;-79
2022/03/29 10:03:34;;;;;;;11.67;7.73;;;19.60;82.80;;;;;;4986040;28;20236;-79
2022/03/29 10:06:05;;;;;;;12.40;7.20;;;19.90;81.70;;;;;;4986511;28;20214;-78
2022/03/29 10:11:22;;;;;;;10.27;7.93;;;20.30;81.20;;;;;;4990091;28;20245;-80
2022/03/29 10:13:49;;;;;;;8.83;7.30;;;20.30;82.90;;;;;;4982568;28;20292;-77
2022/03/29 10:16:17;;;;;;;9.13;6.77;;;20.20;80.30;;;;;;4980617;28;20670;-79
2022/03/29 10:18:45;;;;;;;10.13;7.20;;;20.30;78.00;;;;;;4980446;28;20279;-79
2022/03/29 10:21:15;;;;;;;9.40;7.23;;;20.50;76.70;;;;;;4979287;28;20206;-77
2022/03/29 10:23:45;;;;;;;12.03;9.87;;;20.60;75.20;;;;;;4988877;28;20228;-78
2022/03/29 10:26:17;;;;;;;11.93;10.70;;;20.60;72.20;;;;;;4986465;28;20233;-79
2022/03/29 10:28:45;;;;;;;10.70;9.60;;;20.50;72.60;;;;;;4992515;28;20209;-78
2022/03/29 10:31:33;;;;;;;10.63;9.20;;;20.30;71.50;;;;;;4986474;28;20600;-80
2022/03/29 10:34:16;;;;;;;11.37;9.90;;;20.20;70.60;;;;;;4983265;28;20205;-79
2022/03/29 10:37:08;;;;;;;10.30;9.30;;;20.10;72.00;;;;;;4979891;28;20220;-78
2022/03/29 10:39:51;;;;;;;12.07;10.67;;;20.20;73.50;;;;;;4980164;28;20213;-79
2022/03/29 10:42:30;;;;;;;11.43;10.33;;;20.10;71.30;;;;;;4985328;28;20201;-78
2022/03/29 10:45:15;;;;;;;12.57;11.23;;;20.10;70.70;;;;;;4978499;28;20204;-77
2022/03/29 10:47:45;;;;;;;11.57;10.20;;;20.20;70.00;;;;;;4963033;28;20229;-79
2022/03/29 10:50:13;;;;;;;10.73;9.63;;;20.40;70.20;;;;;;4987450;28;20205;-79
2022/03/29 10:52:43;;;;;;;11.60;10.50;;;20.40;69.20;;;;;;4984461;28;20233;-79
2022/03/29 10:55:21;;;;;;;11.40;10.13;;;20.50;68.10;;;;;;4983911;28;20261;-78
2022/03/29 10:58:12;;;;;;;10.53;9.63;;;20.60;68.90;;;;;;4980439;28;20214;-78
2022/03/29 11:00:41;;;;;;;11.13;10.13;;;20.60;67.30;;;;;;4980615;28;20733;-77
2022/03/29 11:03:10;;;;;;;10.47;9.47;;;20.50;68.70;;;;;;4986552;28;20189;-78
2022/03/29 11:06:06;;;;;;;11.47;10.30;;;20.60;67.90;;;;;;4977769;28;20206;-78
2022/03/29 11:08:37;;;;;;;11.33;10.13;;;20.60;68.10;;;;;;4992508;28;20305;-78
2022/03/29 11:11:05;;;;;;;11.37;10.30;;;20.80;69.40;;;;;;4984567;28;20205;-79
2022/03/29 11:13:34;;;;;;;11.53;10.43;;;20.80;67.30;;;;;;4985380;28;20666;-78
2022/03/29 11:16:21;;;;;;;11.67;10.50;;;20.80;68.30;;;;;;4982679;28;20592;-79
2022/03/29 11:18:49;;;;;;;11.17;9.97;;;20.70;68.50;;;;;;4971824;28;20694;-80
2022/03/29 11:21:40;;;;;;;14.57;11.93;;;20.70;66.70;;;;;;4986180;28;20198;-79
2022/03/29 11:24:15;;;;;;;9.50;8.23;;;20.60;67.00;;;;;;4989667;28;20218;-80
2022/03/29 11:26:57;;;;;;;11.73;10.57;;;20.50;67.60;;;;;;4978136;28;20210;-79
2022/03/29 11:29:25;;;;;;;10.23;7.83;;;20.50;68.30;;;;;;4992261;28;20599;-79
2022/03/29 11:31:52;;;;;;;12.23;10.10;;;20.50;68.40;;;;;;4989925;28;20669;-80
2022/03/29 11:34:19;;;;;;;10.57;7.53;;;20.50;68.10;;;;;;4990095;28;20635;-80
2022/03/29 11:36:46;;;;;;;10.47;6.90;;;20.60;68.30;;;;;;4989956;28;20177;-80
2022/03/29 11:39:25;;;;;;;9.87;7.87;;;20.50;67.40;;;;;;4986749;28;20223;-80
2022/03/29 11:41:54;;;;;;;11.97;10.70;;;20.30;67.60;;;;;;4991027;28;20198;-79
2022/03/29 11:44:24;;;;;;;10.53;8.10;;;20.20;68.10;;;;;;4993756;28;20213;-79
2022/03/29 11:46:53;;;;;;;12.90;7.67;;;20.10;69.10;;;;;;4992237;28;20301;-80
2022/03/29 11:49:22;;;;;;;9.47;7.50;;;20.10;68.70;;;;;;4991364;28;20225;-80
2022/03/29 11:52:08;;;;;;;10.33;8.37;;;20.20;68.80;;;;;;4983815;28;20662;-79
2022/03/29 11:54:44;;;;;;;9.40;8.27;;;20.10;69.00;;;;;;4983245;28;20288;-80
2022/03/29 11:57:22;;;;;;;9.63;8.47;;;20.00;66.40;;;;;;4991956;28;20197;-79
2022/03/29 11:59:50;;;;;;;10.97;9.90;;;19.90;71.50;;;;;;4988010;28;20208;-79
2022/03/29 12:02:19;;;;;;;10.23;9.23;;;20.00;68.60;;;;;;4988481;28;20214;-80
2022/03/29 12:04:47;;;;;;;10.77;9.70;;;20.20;68.30;;;;;;4991696;28;20209;-79
2022/03/29 12:07:14;;;;;;;10.83;9.13;;;20.20;69.60;;;;;;4990870;28;20220;-79
2022/03/29 12:09:47;;;;;;;10.23;9.23;;;20.30;70.00;;;;;;4984700;28;20751;-79
2022/03/29 12:12:15;;;;;;;10.70;9.60;;;20.30;68.90;;;;;;4984144;28;20197;-79
2022/03/29 12:14:42;;;;;;;9.87;8.00;;;20.50;67.90;;;;;;4982026;28;20201;-79
2022/03/29 12:17:09;;;;;;;12.13;10.93;;;20.40;67.70;;;;;;4981740;28;20196;-80
2022/03/29 12:19:39;;;;;;;16.07;14.57;;;20.40;66.70;;;;;;4988942;28;20252;-79
2022/03/29 12:22:09;;;;;;;13.17;10.23;;;20.20;66.40;;;;;;4989171;28;20635;-79
2022/03/29 12:24:37;;;;;;;10.10;9.10;;;20.00;65.30;;;;;;4996395;28;20248;-79
2022/03/29 12:27:07;;;;;;;11.77;8.93;;;20.10;65.40;;;;;;4988696;28;20209;-80
2022/03/29 12:29:43;;;;;;;11.13;10.03;;;20.20;66.40;;;;;;4984151;28;20744;-80
2022/03/29 12:32:10;;;;;;;11.70;10.47;;;20.30;68.00;;;;;;4983902;28;20199;-79
2022/03/29 12:34:39;;;;;;;12.77;11.47;;;20.40;67.60;;;;;;4966565;28;20256;-81
2022/03/29 12:37:13;;;;;;;14.30;12.93;;;20.50;67.20;;;;;;4981861;28;20206;-80
2022/03/29 12:39:42;;;;;;;15.20;13.70;;;20.30;67.40;;;;;;4989182;28;20202;-80
2022/03/29 12:42:12;;;;;;;14.50;13.10;;;20.20;68.00;;;;;;4982212;28;20226;-80
2022/03/29 12:44:43;;;;;;;13.03;11.73;;;20.20;67.60;;;;;;4979587;28;20201;-79
2022/03/29 12:47:11;;;;;;;10.90;8.97;;;20.20;68.10;;;;;;4988537;28;20231;-80
2022/03/29 12:49:39;;;;;;;10.97;9.87;;;20.20;68.80;;;;;;4980848;28;20214;-80
2022/03/29 12:52:08;;;;;;;9.60;7.30;;;20.30;68.20;;;;;;4987414;28;20194;-78
2022/03/29 12:54:37;;;;;;;8.97;7.47;;;20.40;69.20;;;;;;4988952;28;20228;-79
2022/03/29 12:57:06;;;;;;;9.73;6.63;;;20.60;69.00;;;;;;4983111;28;20247;-79
2022/03/29 12:59:37;;;;;;;12.77;10.10;;;20.80;68.20;;;;;;4989258;28;20225;-79